TimeEST,TemperatureF,Dew PointF,Humidity,Sea Level PressureIn,VisibilityMPH,Wind Direction,Wind SpeedMPH,Gust SpeedMPH,PrecipitationIn,Events,Conditions,WindDirDegrees,DateUTC
12:53 AM,28.0,21.9,78,30.53,10.0,NW,4.6,-,N/A,,Clear,320,2012-11-15 05:53:00
1:53 AM,28.0,21.9,78,30.52,10.0,NW,4.6,-,N/A,,Clear,310,2012-11-15 06:53:00
2:53 AM,26.1,21.9,84,30.53,10.0,NW,3.5,-,N/A,,Clear,310,2012-11-15 07:53:00
3:53 AM,26.1,21.0,81,30.52,10.0,West,3.5,-,N/A,,Clear,270,2012-11-15 08:53:00
4:53 AM,25.0,19.9,81,30.50,10.0,WNW,3.5,-,N/A,,Clear,300,2012-11-15 09:53:00
5:53 AM,23.0,19.9,88,30.51,10.0,Calm,Calm,-,N/A,,Clear,0,2012-11-15 10:53:00
6:53 AM,24.1,19.9,84,30.52,10.0,WSW,5.8,-,N/A,,Clear,240,2012-11-15 11:53:00
7:53 AM,24.1,21.0,88,30.52,10.0,Calm,Calm,-,N/A,,Clear,0,2012-11-15 12:53:00
8:53 AM,30.0,23.0,75,30.52,10.0,Calm,Calm,-,N/A,,Clear,0,2012-11-15 13:53:00
9:53 AM,32.0,23.0,69,30.50,10.0,North,3.5,-,N/A,,Clear,10,2012-11-15 14:53:00
10:53 AM,33.1,24.1,70,30.47,10.0,NNE,3.5,-,N/A,,Clear,20,2012-11-15 15:53:00
11:53 AM,34.0,25.0,70,30.45,10.0,NE,3.5,-,N/A,,Clear,50,2012-11-15 16:53:00
1:53 PM,36.0,25.0,64,30.42,10.0,North,5.8,-,N/A,,Clear,360,2012-11-15 18:53:00
2:53 PM,36.0,24.1,62,30.40,10.0,NE,5.8,-,N/A,,Clear,40,2012-11-15 19:53:00
3:53 PM,35.1,24.1,64,30.40,10.0,NNE,5.8,-,N/A,,Clear,20,2012-11-15 20:53:00
4:53 PM,30.9,24.1,76,30.40,10.0,NNW,3.5,-,N/A,,Clear,330,2012-11-15 21:53:00
5:53 PM,28.0,23.0,81,30.39,10.0,Calm,Calm,-,N/A,,Clear,0,2012-11-15 22:53:00
6:53 PM,28.9,23.0,78,30.40,10.0,WNW,4.6,-,N/A,,Clear,290,2012-11-15 23:53:00
7:53 PM,27.0,21.9,81,30.39,10.0,WNW,4.6,-,N/A,,Clear,290,2012-11-16 00:53:00
8:53 PM,26.1,21.9,84,30.38,10.0,West,3.5,-,N/A,,Clear,280,2012-11-16 01:53:00
10:53 PM,24.1,21.0,88,30.36,10.0,Calm,Calm,-,N/A,,Clear,0,2012-11-16 03:53:00
11:53 PM,23.0,21.0,92,30.37,10.0,Calm,Calm,-,N/A,,Clear,0,2012-11-16 04:53:00